Ridge, North Carolina
Current Conditions -  °F | °C
As of 1:54 AM on Sunday 23 Nov 2014 (Local Time) from KAKH Reporting Station
Overcast Overcast  
Wind Chill: 45°   Ceiling: 5000
Heat Index: 45°   Visibility: 10mi
Dew Point: 27°   Wind: 3mph
Humidity: 49%   Direction: 10°N
Pressure: 30.27"   Gusts: NA
Location:  35.2205°N, 81.2501°W
Report Text: KAKH 230654Z AUTO 01003KT 10SM OVC050 07/M03 A3027 RMK AO2 SLP250 T00721028
Loading
Personal Weather Stations






























Interactive Weather Map New forecast layout! Learn more

10-Day Weather Forecast

Advertisements
Track Severe Weather on mobile